Terminal Aerodrome Forecast
Issued by NWS

Home | Current Version | Previous Version | Text Only | Print | Product List | Glossary On
Versions: 1 2 3 4 5 6 7 8 9 10 11 12 13 14 15 16 17
000
FTUS43 KFGF 090537 RRA
TAFTVF
TAF
KTVF 090537Z 0906/1006 33006KT P6SM OVC035
      TEMPO 0906/0910 -SN BKN025
     FM091000 30005KT P6SM BKN015
     FM091400 28005KT P6SM BKN035
     FM100100 27005KT P6SM SCT025=

USA.gov is the U.S. government's official web portal to all federal, state and local government web resources and services.